createdAt,value
2023-04-24T00:01:15.857Z,1.83
2023-04-24T00:03:57.542Z,1.80
2023-04-24T00:06:36.519Z,2.03
2023-04-24T00:09:07.450Z,1.85
2023-04-24T00:11:38.030Z,2.38
2023-04-24T00:14:32.225Z,2.45
2023-04-24T00:17:09.496Z,1.73
2023-04-24T00:20:06.009Z,1.90
2023-04-24T00:22:41.162Z,1.90
2023-04-24T00:25:23.653Z,1.70
2023-04-24T00:27:55.718Z,2.00
2023-04-24T00:30:24.957Z,1.85
2023-04-24T00:32:58.217Z,1.95
2023-04-24T00:35:33.574Z,2.20
2023-04-24T00:38:10.687Z,1.75
2023-04-24T00:40:57.318Z,1.67
2023-04-24T00:43:31.910Z,1.90
2023-04-24T00:46:04.188Z,1.88
2023-04-24T00:48:45.332Z,1.83
2023-04-24T00:51:26.939Z,1.95
2023-04-24T00:56:40.255Z,1.80
2023-04-24T00:59:14.254Z,2.03
2023-04-24T01:01:51.496Z,1.65
2023-04-24T01:04:28.658Z,1.52
2023-04-24T01:07:01.324Z,2.00
2023-04-24T01:09:53.592Z,1.83
2023-04-24T01:12:37.877Z,2.60
2023-04-24T01:15:09.328Z,2.05
2023-04-24T01:23:13.626Z,2.13
2023-04-24T01:25:41.819Z,2.17
2023-04-24T01:28:18.906Z,2.17
2023-04-24T01:30:48.006Z,2.58
2023-04-24T01:33:17.413Z,2.25
2023-04-24T01:35:52.759Z,2.75
2023-04-24T01:38:25.905Z,2.40
2023-04-24T01:40:54.136Z,2.42
2023-04-24T01:43:42.782Z,2.63
2023-04-24T01:46:17.229Z,2.28
2023-04-24T01:48:50.586Z,2.22
2023-04-24T01:51:18.519Z,2.30
2023-04-24T01:53:55.930Z,2.30
2023-04-24T01:56:32.034Z,2.10
2023-04-24T02:02:18.391Z,2.30
2023-04-24T02:04:46.685Z,2.38
2023-04-24T02:07:16.785Z,2.20
2023-04-24T02:10:01.166Z,2.40
2023-04-24T02:12:33.340Z,2.40
2023-04-24T02:15:09.666Z,2.40
2023-04-24T02:17:44.762Z,2.20
2023-04-24T02:20:13.536Z,2.55
2023-04-24T02:22:53.000Z,1.90
2023-04-24T02:26:05.273Z,2.05
2023-04-24T02:34:35.178Z,1.83
2023-04-24T02:37:03.314Z,1.80
2023-04-24T02:39:34.301Z,1.67
2023-04-24T02:42:02.734Z,1.75
2023-04-24T02:44:33.214Z,1.73
2023-04-24T02:47:17.659Z,1.67
2023-04-24T02:53:02.754Z,2.10
2023-04-24T02:59:03.698Z,2.20
2023-04-24T03:01:33.280Z,2.20
2023-04-24T03:04:06.142Z,2.10
2023-04-24T03:06:41.367Z,2.10
2023-04-24T03:09:21.099Z,2.55
2023-04-24T03:12:11.165Z,2.58
2023-04-24T03:14:41.231Z,2.58
2023-04-24T03:17:13.935Z,2.67
2023-04-24T03:19:48.043Z,3.13
2023-04-24T03:22:23.445Z,3.13
2023-04-24T03:24:59.450Z,3.47
2023-04-24T03:27:34.035Z,3.15
2023-04-24T03:30:20.478Z,3.25
2023-04-24T03:32:52.700Z,3.13
2023-04-24T03:35:39.423Z,2.92
2023-04-24T03:38:11.568Z,3.00
2023-04-24T03:40:40.283Z,3.10
2023-04-24T03:43:08.353Z,2.95
2023-04-24T03:45:38.004Z,2.90
2023-04-24T03:48:12.241Z,2.60
2023-04-24T03:50:47.326Z,2.90
2023-04-24T03:53:16.633Z,2.55
2023-04-24T03:55:51.880Z,2.70
2023-04-24T03:58:23.278Z,2.03
2023-04-24T04:03:28.431Z,1.83
2023-04-24T04:06:13.838Z,1.67
2023-04-24T04:08:42.036Z,1.75
2023-04-24T04:11:15.691Z,1.70
2023-04-24T04:13:43.712Z,1.95
2023-04-24T04:16:13.925Z,1.40
2023-04-24T04:18:47.965Z,1.40
2023-04-24T04:21:48.225Z,1.05
2023-04-24T04:24:43.035Z,1.20
2023-04-24T04:27:26.448Z,1.10
2023-04-24T04:30:23.668Z,1.27
2023-04-24T04:33:17.781Z,0.80
2023-04-24T04:35:46.940Z,1.00
2023-04-24T04:38:19.387Z,1.00
2023-04-24T04:41:06.031Z,0.90
2023-04-24T04:43:39.083Z,0.75
2023-04-24T04:46:10.800Z,1.00
2023-04-24T04:48:59.704Z,0.82
2023-04-24T04:51:41.234Z,0.90
2023-04-24T04:54:19.433Z,1.05
2023-04-24T04:56:58.260Z,1.15
2023-04-24T04:59:31.865Z,1.05
2023-04-24T05:02:14.347Z,1.23
2023-04-24T05:04:43.984Z,1.48
2023-04-24T05:07:20.337Z,1.33
2023-04-24T05:10:08.412Z,1.55
2023-04-24T05:12:40.802Z,1.60
2023-04-24T05:15:30.599Z,1.92
2023-04-24T05:18:04.154Z,2.17
2023-04-24T05:20:38.378Z,1.50
2023-04-24T05:23:08.700Z,1.20
2023-04-24T05:25:49.206Z,1.25
2023-04-24T05:28:23.601Z,1.63
2023-04-24T05:31:14.360Z,1.70
2023-04-24T05:33:57.781Z,1.30
2023-04-24T05:36:33.787Z,1.50
2023-04-24T05:39:27.958Z,1.60
2023-04-24T05:42:26.128Z,1.50
2023-04-24T05:45:19.966Z,1.70
2023-04-24T05:47:48.200Z,1.88
2023-04-24T05:50:36.828Z,1.67
2023-04-24T05:53:27.332Z,2.20
2023-04-24T05:55:58.399Z,1.92
2023-04-24T06:19:14.971Z,1.17
2023-04-24T06:22:04.375Z,1.17
2023-04-24T06:24:52.247Z,1.20
2023-04-24T06:30:35.580Z,1.30
2023-04-24T06:33:21.061Z,0.82
2023-04-24T06:35:50.155Z,0.82
2023-04-24T06:41:32.085Z,0.80
2023-04-24T06:47:13.852Z,2.15
2023-04-24T06:52:54.911Z,0.93
2023-04-24T06:55:46.253Z,1.02
2023-04-24T07:01:35.636Z,1.00
2023-04-24T07:04:05.531Z,1.10
2023-04-24T07:07:12.733Z,1.20
2023-04-24T07:10:05.343Z,1.38
2023-04-24T07:19:09.957Z,1.23
2023-04-24T07:58:45.484Z,1.73
2023-04-24T08:01:29.721Z,1.52
2023-04-24T08:04:28.578Z,1.10
2023-04-24T08:10:10.679Z,1.05
2023-04-24T08:12:46.560Z,0.98
2023-04-24T08:15:30.204Z,1.00
2023-04-24T08:18:09.267Z,0.90
2023-04-24T08:23:59.441Z,1.02
2023-04-24T08:29:46.415Z,0.95
2023-04-24T08:35:53.755Z,1.00
2023-04-24T08:38:36.648Z,1.20
2023-04-24T08:44:18.987Z,0.90
2023-04-24T08:46:56.831Z,0.85
2023-04-24T08:49:42.222Z,0.80
2023-04-24T08:55:28.972Z,0.80
2023-04-24T09:01:15.757Z,0.57
2023-04-24T09:16:03.219Z,1.02
2023-04-24T09:21:46.054Z,0.63
2023-04-24T09:37:53.629Z,0.80
2023-04-24T09:40:39.823Z,0.90
2023-04-24T10:01:53.596Z,2.10
2023-04-24T10:07:14.321Z,0.65
2023-04-24T10:15:57.598Z,0.57
2023-04-24T10:21:45.059Z,0.70
2023-04-24T10:26:48.678Z,0.50
2023-04-24T10:29:35.322Z,0.80
2023-04-24T10:35:17.595Z,0.57
2023-04-24T10:37:51.323Z,0.70
2023-04-24T10:40:35.746Z,0.77
2023-04-24T10:43:14.770Z,0.70
2023-04-24T10:46:05.748Z,1.05
2023-04-24T10:52:19.423Z,0.80
2023-04-24T10:55:05.324Z,0.80
2023-04-24T11:01:28.990Z,0.60
2023-04-24T11:04:33.037Z,0.90
2023-04-24T11:10:29.036Z,0.80
2023-04-24T11:16:17.082Z,0.60
2023-04-24T11:19:19.196Z,0.60
2023-04-24T11:22:09.324Z,0.80
2023-04-24T11:25:11.775Z,0.70
2023-04-24T11:27:49.559Z,0.60
2023-04-24T11:30:20.619Z,0.75
2023-04-24T11:32:56.499Z,0.60
2023-04-24T11:35:34.455Z,0.88
2023-04-24T11:43:53.609Z,0.88
2023-04-24T11:47:10.758Z,0.80
2023-04-24T11:49:47.726Z,0.75
2023-04-24T11:52:23.304Z,1.13
2023-04-24T11:54:53.174Z,1.08
2023-04-24T11:57:46.119Z,0.95
2023-04-24T12:00:40.730Z,0.80
2023-04-24T12:03:23.782Z,0.80
2023-04-24T12:05:53.237Z,1.02
2023-04-24T12:08:31.324Z,0.85
2023-04-24T12:11:03.705Z,0.98
2023-04-24T12:13:41.820Z,0.80
2023-04-24T12:16:15.302Z,0.60
2023-04-24T12:18:53.904Z,0.90
2023-04-24T12:21:32.872Z,1.00
2023-04-24T12:24:14.570Z,0.95
2023-04-24T12:26:45.338Z,0.88
2023-04-24T12:29:22.629Z,0.60
2023-04-24T12:32:18.010Z,0.60
2023-04-24T12:35:27.955Z,0.80
2023-04-24T12:41:23.491Z,0.90
2023-04-24T12:44:01.192Z,1.00
2023-04-24T12:46:38.481Z,1.48
2023-04-24T12:49:17.520Z,1.23
2023-04-24T12:51:59.668Z,1.13
2023-04-24T12:54:39.587Z,0.90
2023-04-24T12:57:25.914Z,1.30
2023-04-24T12:59:56.409Z,1.17
2023-04-24T13:02:35.703Z,1.60
2023-04-24T13:05:07.234Z,1.50
2023-04-24T13:07:42.285Z,1.20
2023-04-24T13:10:16.976Z,1.45
2023-04-24T13:15:47.783Z,1.02
2023-04-24T13:18:18.229Z,1.00
2023-04-24T13:20:46.572Z,1.20
2023-04-24T13:23:25.469Z,1.13
2023-04-24T13:25:58.426Z,1.90
2023-04-24T13:31:28.899Z,1.20
2023-04-24T13:33:58.626Z,1.02
2023-04-24T13:36:31.264Z,1.40
2023-04-24T13:39:10.172Z,1.30
2023-04-24T13:41:38.860Z,1.35
2023-04-24T13:44:08.772Z,1.33
2023-04-24T13:46:44.558Z,1.40
2023-04-24T13:49:20.553Z,1.42
2023-04-24T14:08:17.636Z,1.70
2023-04-24T14:11:10.837Z,1.60
2023-04-24T14:35:51.804Z,1.85
2023-04-24T14:41:34.175Z,1.63
2023-04-24T14:44:33.382Z,1.95
2023-04-24T14:50:24.509Z,2.50
2023-04-24T14:53:22.136Z,1.10
2023-04-24T14:56:32.593Z,0.90
2023-04-24T15:02:39.979Z,0.80
2023-04-24T15:05:18.316Z,1.20
2023-04-24T15:08:13.708Z,0.77
2023-04-24T15:10:54.325Z,1.00
2023-04-24T15:16:39.604Z,1.20
2023-04-24T15:19:29.891Z,1.10
2023-04-24T15:22:28.580Z,1.25
2023-04-24T15:28:09.699Z,1.55
2023-04-24T16:50:20.986Z,1.52
2023-04-24T16:56:08.037Z,1.52
2023-04-24T17:01:57.645Z,2.10
2023-04-24T17:07:44.791Z,1.45
2023-04-24T17:19:31.228Z,1.73
2023-04-24T17:25:12.040Z,2.03
2023-04-24T17:30:26.398Z,1.73
2023-04-24T17:32:56.137Z,1.58
2023-04-24T17:35:41.924Z,1.63
2023-04-24T17:38:28.993Z,1.60
2023-04-24T17:40:58.746Z,1.83
2023-04-24T17:43:28.109Z,2.08
2023-04-24T18:11:53.584Z,2.67
2023-04-24T18:14:59.926Z,2.88
2023-04-24T18:18:17.056Z,2.15
2023-04-24T18:24:01.884Z,1.88
2023-04-24T18:29:42.917Z,2.58
2023-04-24T18:35:24.311Z,2.40
2023-04-24T18:38:13.277Z,2.15
2023-04-24T18:44:03.509Z,2.10
2023-04-24T18:46:41.822Z,2.50
2023-04-24T18:49:15.058Z,2.70
2023-04-24T18:55:01.814Z,2.75
2023-04-24T19:00:11.446Z,2.67
2023-04-24T19:05:58.309Z,2.53
2023-04-24T19:11:47.636Z,2.08
2023-04-24T19:14:35.974Z,2.20
2023-04-24T19:20:17.708Z,2.38
2023-04-24T19:26:01.329Z,2.50
2023-04-24T19:31:42.503Z,2.35
2023-04-24T19:37:25.888Z,2.20
2023-04-24T20:33:35.888Z,2.35
2023-04-24T20:39:31.812Z,2.45
2023-04-24T21:24:05.797Z,2.20
2023-04-24T21:29:48.922Z,2.28
2023-04-24T21:33:02.323Z,2.28
2023-04-24T21:39:36.180Z,2.50
2023-04-24T21:45:16.763Z,1.75
2023-04-24T21:54:06.211Z,1.98
2023-04-24T21:56:55.543Z,2.38
2023-04-24T21:59:35.565Z,1.73
2023-04-24T22:02:28.900Z,2.30
2023-04-24T22:05:27.971Z,1.98
2023-04-24T22:07:57.875Z,2.20
2023-04-24T22:10:26.272Z,3.03
2023-04-24T22:22:20.999Z,1.70
2023-04-24T22:34:33.165Z,2.20
2023-04-24T22:40:14.115Z,2.03
2023-04-24T22:45:54.608Z,2.30
2023-04-24T22:51:29.838Z,2.20
2023-04-24T22:54:33.344Z,2.25
2023-04-24T23:04:01.338Z,2.35
2023-04-24T23:09:42.324Z,2.20
2023-04-24T23:15:23.517Z,2.03
2023-04-24T23:17:55.882Z,2.20
2023-04-24T23:20:32.391Z,2.20
2023-04-24T23:23:06.557Z,2.10
2023-04-24T23:25:44.250Z,2.30
2023-04-24T23:28:43.322Z,2.03
2023-04-24T23:31:43.234Z,2.20
2023-04-24T23:44:36.759Z,2.30
2023-04-24T23:50:07.660Z,2.05
2023-04-24T23:55:48.586Z,2.58
